createdAt,value
2023-05-22T00:00:25.196Z,9.90
2023-05-22T00:02:52.687Z,11.40
2023-05-22T00:05:20.610Z,10.88
2023-05-22T00:07:47.253Z,12.30
2023-05-22T00:10:13.825Z,11.65
2023-05-22T00:12:40.566Z,12.43
2023-05-22T00:15:07.745Z,11.60
2023-05-22T00:17:34.544Z,12.25
2023-05-22T00:20:08.992Z,11.07
2023-05-22T00:22:35.687Z,13.00
2023-05-22T00:25:05.795Z,10.45
2023-05-22T00:27:32.852Z,11.55
2023-05-22T00:29:59.650Z,11.63
2023-05-22T00:32:26.418Z,10.75
2023-05-22T00:34:53.066Z,9.30
2023-05-22T00:37:22.274Z,9.98
2023-05-22T00:39:49.062Z,9.88
2023-05-22T00:42:15.937Z,9.05
2023-05-22T00:44:42.657Z,10.23
2023-05-22T00:47:09.218Z,8.85
2023-05-22T00:49:35.785Z,6.85
2023-05-22T00:52:02.472Z,7.13
2023-05-22T00:54:32.009Z,6.63
2023-05-22T00:57:00.653Z,6.75
2023-05-22T00:59:27.850Z,6.00
2023-05-22T01:01:55.060Z,6.40
2023-05-22T01:04:21.821Z,6.82
2023-05-22T01:06:48.423Z,6.47
2023-05-22T01:09:15.199Z,7.00
2023-05-22T01:11:44.728Z,7.28
2023-05-22T01:14:14.124Z,7.43
2023-05-22T01:16:46.958Z,6.75
2023-05-22T01:19:36.674Z,6.68
2023-05-22T01:22:05.932Z,6.40
2023-05-22T01:24:52.203Z,5.30
2023-05-22T01:27:18.699Z,6.32
2023-05-22T01:29:55.656Z,5.68
2023-05-22T01:32:23.395Z,5.80
2023-05-22T01:34:53.242Z,6.20
2023-05-22T01:37:21.902Z,5.70
2023-05-22T01:39:49.014Z,6.50
2023-05-22T01:42:15.988Z,6.00
2023-05-22T01:44:42.548Z,5.50
2023-05-22T01:47:09.166Z,6.30
2023-05-22T01:49:36.505Z,6.65
2023-05-22T01:52:26.782Z,6.63
2023-05-22T01:54:59.130Z,5.80
2023-05-22T01:57:31.052Z,5.35
2023-05-22T02:00:09.965Z,6.18
2023-05-22T02:02:37.944Z,5.57
2023-05-22T02:05:05.740Z,5.65
2023-05-22T02:07:33.404Z,5.55
2023-05-22T02:10:01.318Z,5.20
2023-05-22T02:12:28.174Z,4.88
2023-05-22T02:14:55.634Z,5.03
2023-05-22T02:17:22.231Z,4.80
2023-05-22T02:19:48.964Z,7.47
2023-05-22T02:22:15.604Z,5.65
2023-05-22T02:24:43.412Z,5.57
2023-05-22T02:27:09.973Z,4.78
2023-05-22T02:29:36.524Z,5.70
2023-05-22T02:32:03.094Z,5.53
2023-05-22T02:34:31.766Z,5.13
2023-05-22T02:37:03.882Z,5.47
2023-05-22T02:39:30.647Z,6.07
2023-05-22T02:41:57.196Z,6.63
2023-05-22T02:44:23.772Z,6.03
2023-05-22T02:46:50.354Z,5.32
2023-05-22T02:49:17.019Z,5.40
2023-05-22T02:51:47.778Z,6.70
2023-05-22T02:54:15.713Z,6.30
2023-05-22T02:56:42.869Z,5.53
2023-05-22T02:59:09.497Z,5.65
2023-05-22T03:01:36.692Z,7.10
2023-05-22T03:04:03.347Z,5.93
2023-05-22T03:06:30.633Z,6.53
2023-05-22T03:08:57.186Z,5.63
2023-05-22T03:11:23.708Z,6.30
2023-05-22T03:13:50.224Z,5.40
2023-05-22T03:16:16.905Z,6.03
2023-05-22T03:18:43.593Z,5.70
2023-05-22T03:21:10.160Z,5.88
2023-05-22T03:23:36.710Z,5.53
2023-05-22T03:26:03.248Z,6.22
2023-05-22T03:28:29.826Z,6.00
2023-05-22T03:30:56.379Z,4.70
2023-05-22T03:33:23.004Z,5.85
2023-05-22T03:35:50.195Z,6.40
2023-05-22T03:38:16.751Z,5.35
2023-05-22T03:40:43.269Z,5.50
2023-05-22T03:43:09.778Z,5.38
2023-05-22T03:45:36.403Z,5.78
2023-05-22T03:48:02.997Z,7.13
2023-05-22T03:50:29.597Z,4.63
2023-05-22T03:52:56.124Z,5.20
2023-05-22T03:55:22.669Z,4.70
2023-05-22T03:57:49.174Z,5.78
2023-05-22T04:00:17.155Z,5.65
2023-05-22T04:02:45.425Z,5.32
2023-05-22T04:05:12.211Z,5.45
2023-05-22T04:07:38.757Z,5.28
2023-05-22T04:10:05.521Z,5.28
2023-05-22T04:12:32.119Z,5.82
2023-05-22T04:14:58.653Z,5.97
2023-05-22T04:17:26.528Z,5.93
2023-05-22T04:19:53.139Z,5.50
2023-05-22T04:22:19.661Z,5.38
2023-05-22T04:24:49.318Z,5.32
2023-05-22T04:27:16.088Z,5.57
2023-05-22T04:29:42.654Z,5.50
2023-05-22T04:32:10.752Z,5.78
2023-05-22T04:34:41.785Z,5.93
2023-05-22T04:37:10.255Z,4.45
2023-05-22T04:39:37.782Z,5.25
2023-05-22T04:42:06.038Z,4.90
2023-05-22T04:44:34.472Z,4.80
2023-05-22T04:47:01.688Z,5.05
2023-05-22T04:49:28.776Z,4.75
2023-05-22T04:51:55.711Z,5.60
2023-05-22T04:54:22.224Z,4.75
2023-05-22T04:56:48.812Z,5.05
2023-05-22T04:59:16.465Z,4.75
2023-05-22T05:01:46.402Z,5.55
2023-05-22T05:04:13.060Z,5.93
2023-05-22T05:06:39.640Z,5.88
2023-05-22T05:09:06.371Z,5.90
2023-05-22T05:11:32.949Z,6.40
2023-05-22T05:13:59.470Z,6.95
2023-05-22T05:16:26.523Z,7.60
2023-05-22T05:18:53.605Z,6.53
2023-05-22T05:21:21.524Z,7.72
2023-05-22T05:23:48.436Z,8.07
2023-05-22T05:26:14.963Z,7.55
2023-05-22T05:28:41.534Z,8.82
2023-05-22T05:31:08.061Z,8.55
2023-05-22T05:33:34.596Z,8.20
2023-05-22T05:36:01.154Z,7.57
2023-05-22T05:38:27.667Z,5.57
2023-05-22T05:40:54.215Z,6.13
2023-05-22T05:43:20.811Z,4.43
2023-05-22T05:45:47.368Z,3.30
2023-05-22T05:48:13.976Z,3.50
2023-05-22T05:50:40.785Z,4.15
2023-05-22T05:53:08.109Z,3.75
2023-05-22T05:55:34.840Z,3.08
2023-05-22T05:58:01.374Z,2.72
2023-05-22T06:00:28.028Z,2.83
2023-05-22T06:02:55.169Z,2.78
2023-05-22T06:05:22.361Z,2.90
2023-05-22T06:07:49.783Z,3.38
2023-05-22T06:10:16.397Z,2.92
2023-05-22T06:12:43.142Z,2.63
2023-05-22T06:15:09.797Z,2.65
2023-05-22T06:17:37.690Z,2.92
2023-05-22T06:20:07.036Z,2.63
2023-05-22T06:22:33.598Z,2.65
2023-05-22T06:25:00.212Z,3.72
2023-05-22T06:27:27.862Z,2.38
2023-05-22T06:29:55.626Z,2.53
2023-05-22T06:32:22.996Z,2.90
2023-05-22T06:34:49.945Z,2.60
2023-05-22T06:37:16.951Z,3.42
2023-05-22T06:39:43.549Z,2.45
2023-05-22T06:42:10.114Z,4.18
2023-05-22T06:44:36.655Z,2.78
2023-05-22T06:47:03.264Z,3.30
2023-05-22T06:49:29.777Z,3.88
2023-05-22T06:51:57.213Z,3.13
2023-05-22T06:54:23.840Z,3.40
2023-05-22T06:56:50.595Z,2.40
2023-05-22T06:59:17.204Z,2.97
2023-05-22T07:01:43.928Z,3.40
2023-05-22T07:04:12.076Z,3.10
2023-05-22T07:06:39.276Z,3.13
2023-05-22T07:09:06.289Z,2.50
2023-05-22T07:11:32.868Z,2.80
2023-05-22T07:13:59.471Z,2.45
2023-05-22T07:16:26.169Z,2.97
2023-05-22T07:18:53.197Z,2.30
2023-05-22T07:21:19.847Z,3.15
2023-05-22T07:23:46.467Z,2.30
2023-05-22T07:26:13.040Z,2.67
2023-05-22T07:28:39.578Z,2.30
2023-05-22T07:31:06.583Z,2.70
2023-05-22T07:33:33.235Z,2.85
2023-05-22T07:35:59.778Z,2.17
2023-05-22T07:38:26.766Z,2.45
2023-05-22T07:40:53.361Z,2.15
2023-05-22T07:43:19.898Z,2.13
2023-05-22T07:45:46.496Z,2.30
2023-05-22T07:48:13.135Z,2.20
2023-05-22T07:50:39.804Z,2.38
2023-05-22T07:53:06.584Z,3.03
2023-05-22T07:55:33.152Z,2.13
2023-05-22T07:57:59.684Z,2.55
2023-05-22T08:00:26.393Z,2.13
2023-05-22T08:02:53.237Z,1.95
2023-05-22T08:05:19.998Z,3.00
2023-05-22T08:07:46.578Z,2.08
2023-05-22T08:10:14.305Z,2.35
2023-05-22T08:12:41.003Z,2.10
2023-05-22T08:15:07.831Z,2.65
2023-05-22T08:17:35.189Z,3.08
2023-05-22T08:20:02.065Z,2.05
2023-05-22T08:22:31.521Z,2.17
2023-05-22T08:24:58.058Z,2.03
2023-05-22T08:27:24.614Z,3.17
2023-05-22T08:29:52.178Z,3.08
2023-05-22T08:32:19.010Z,2.50
2023-05-22T08:34:46.253Z,2.58
2023-05-22T08:37:14.468Z,2.67
2023-05-22T08:39:41.071Z,2.05
2023-05-22T08:42:08.257Z,2.40
2023-05-22T08:44:35.128Z,2.40
2023-05-22T08:47:02.020Z,2.78
2023-05-22T08:49:28.824Z,2.95
2023-05-22T08:52:03.186Z,2.60
2023-05-22T08:54:30.802Z,2.30
2023-05-22T08:56:57.831Z,2.00
2023-05-22T08:59:24.552Z,2.40
2023-05-22T09:01:52.507Z,2.95
2023-05-22T09:04:23.169Z,2.22
2023-05-22T09:06:50.665Z,2.65
2023-05-22T09:09:18.042Z,2.45
2023-05-22T09:11:44.640Z,2.40
2023-05-22T09:14:11.702Z,2.53
2023-05-22T09:16:46.173Z,2.45
2023-05-22T09:19:13.990Z,2.75
2023-05-22T09:21:40.916Z,2.22
2023-05-22T09:24:11.040Z,3.08
2023-05-22T09:26:40.829Z,2.72
2023-05-22T09:29:10.088Z,2.78
2023-05-22T09:31:43.126Z,2.08
2023-05-22T09:34:10.621Z,2.53
2023-05-22T09:36:37.171Z,2.30
2023-05-22T09:39:04.767Z,2.08
2023-05-22T09:41:35.720Z,2.35
2023-05-22T09:44:02.443Z,2.42
2023-05-22T09:46:29.690Z,1.98
2023-05-22T09:48:56.540Z,2.30
2023-05-22T09:51:26.811Z,2.33
2023-05-22T09:53:57.064Z,2.67
2023-05-22T09:56:37.874Z,2.10
2023-05-22T09:59:08.815Z,2.38
2023-05-22T10:01:36.319Z,2.15
2023-05-22T10:04:04.434Z,2.00
2023-05-22T10:06:31.818Z,2.40
2023-05-22T10:09:01.878Z,2.63
2023-05-22T10:11:29.703Z,1.95
2023-05-22T10:13:58.686Z,1.92
2023-05-22T10:16:26.091Z,2.05
2023-05-22T10:18:53.755Z,1.92
2023-05-22T10:21:21.264Z,2.50
2023-05-22T10:23:48.759Z,2.42
2023-05-22T10:26:16.570Z,2.13
2023-05-22T10:28:51.670Z,2.30
2023-05-22T10:31:32.132Z,2.03
2023-05-22T10:34:05.530Z,1.50
2023-05-22T10:36:32.290Z,1.77
2023-05-22T10:39:14.038Z,1.73
2023-05-22T10:41:40.799Z,2.17
2023-05-22T10:44:07.429Z,1.98
2023-05-22T10:46:36.728Z,1.70
2023-05-22T10:49:03.393Z,1.90
2023-05-22T10:51:32.555Z,2.13
2023-05-22T10:54:00.979Z,2.05
2023-05-22T10:56:32.866Z,2.00
2023-05-22T10:59:05.357Z,2.42
2023-05-22T11:01:38.188Z,2.42
2023-05-22T11:04:05.312Z,1.67
2023-05-22T11:06:39.227Z,2.20
2023-05-22T11:09:18.926Z,2.63
2023-05-22T11:11:46.248Z,2.00
2023-05-22T11:14:16.236Z,2.65
2023-05-22T11:16:43.202Z,1.92
2023-05-22T11:19:22.803Z,1.38
2023-05-22T11:21:50.247Z,1.90
2023-05-22T11:24:18.281Z,3.05
2023-05-22T11:27:00.491Z,1.83
2023-05-22T11:29:27.532Z,1.85
2023-05-22T11:31:54.514Z,2.20
2023-05-22T11:34:21.151Z,2.47
2023-05-22T11:36:48.314Z,2.45
2023-05-22T11:39:15.048Z,2.00
2023-05-22T11:41:41.571Z,1.92
2023-05-22T11:44:08.738Z,2.10
2023-05-22T11:46:35.520Z,2.15
2023-05-22T11:49:02.557Z,1.85
2023-05-22T11:51:29.385Z,2.20
2023-05-22T11:53:57.017Z,1.98
2023-05-22T11:56:23.571Z,1.73
2023-05-22T11:58:50.456Z,3.45
2023-05-22T12:01:17.028Z,2.20
2023-05-22T12:03:43.644Z,2.47
2023-05-22T12:06:10.804Z,1.88
2023-05-22T12:08:37.437Z,2.20
2023-05-22T12:11:04.804Z,2.17
2023-05-22T12:13:32.004Z,2.08
2023-05-22T12:16:02.335Z,1.88
2023-05-22T12:18:37.821Z,1.67
2023-05-22T12:21:07.701Z,1.80
2023-05-22T12:23:34.369Z,2.40
2023-05-22T12:26:02.319Z,2.30
2023-05-22T12:28:31.327Z,2.00
2023-05-22T12:30:57.911Z,1.50
2023-05-22T12:33:31.271Z,1.98
2023-05-22T12:35:58.807Z,2.25
2023-05-22T12:38:26.648Z,2.30
2023-05-22T12:40:53.623Z,2.67
2023-05-22T12:43:21.305Z,2.05
2023-05-22T12:45:48.080Z,2.35
2023-05-22T12:48:14.868Z,2.30
2023-05-22T12:50:41.766Z,2.50
2023-05-22T12:53:08.644Z,2.35
2023-05-22T12:55:35.544Z,2.20
2023-05-22T12:58:02.121Z,2.00
2023-05-22T13:00:28.804Z,1.98
2023-05-22T13:02:55.490Z,2.25
2023-05-22T13:05:22.183Z,2.08
2023-05-22T13:07:49.102Z,2.08
2023-05-22T13:10:16.036Z,1.83
2023-05-22T13:12:43.240Z,1.77
2023-05-22T13:15:13.762Z,2.20
2023-05-22T13:17:40.326Z,2.15
2023-05-22T13:20:07.248Z,1.95
2023-05-22T13:22:33.887Z,1.88
2023-05-22T13:25:00.671Z,2.10
2023-05-22T13:27:28.071Z,2.30
2023-05-22T13:29:54.601Z,1.70
2023-05-22T13:32:21.178Z,1.98
2023-05-22T13:34:47.792Z,2.30
2023-05-22T13:37:14.627Z,2.05
2023-05-22T13:39:41.183Z,1.63
2023-05-22T13:42:08.983Z,2.33
2023-05-22T13:44:35.512Z,2.08
2023-05-22T13:47:02.080Z,2.03
2023-05-22T13:49:29.097Z,1.92
2023-05-22T13:51:55.633Z,1.58
2023-05-22T13:54:22.311Z,1.77
2023-05-22T13:56:48.908Z,1.77
2023-05-22T13:59:15.440Z,1.88
2023-05-22T14:01:42.012Z,2.00
2023-05-22T14:04:08.664Z,2.33
2023-05-22T14:06:35.291Z,1.58
2023-05-22T14:09:01.844Z,2.15
2023-05-22T14:11:28.463Z,2.30
2023-05-22T14:13:55.019Z,1.63
2023-05-22T14:16:22.551Z,1.73
2023-05-22T14:18:49.204Z,2.00
2023-05-22T14:21:16.082Z,1.90
2023-05-22T14:23:42.615Z,2.28
2023-05-22T14:26:09.174Z,2.10
2023-05-22T14:28:36.390Z,2.17
2023-05-22T14:31:03.007Z,2.33
2023-05-22T14:33:30.621Z,2.25
2023-05-22T14:35:57.153Z,2.40
2023-05-22T14:38:23.706Z,1.75
2023-05-22T14:40:51.378Z,2.33
2023-05-22T14:43:17.945Z,2.10
2023-05-22T14:45:44.472Z,2.28
2023-05-22T14:48:11.612Z,2.00
2023-05-22T14:50:38.186Z,2.28
2023-05-22T14:53:04.726Z,2.05
2023-05-22T14:55:31.851Z,1.60
2023-05-22T14:57:58.607Z,1.80
2023-05-22T15:00:25.227Z,2.42
2023-05-22T15:02:51.859Z,2.22
2023-05-22T15:05:18.576Z,2.25
2023-05-22T15:07:47.273Z,2.05
2023-05-22T15:10:14.973Z,2.42
2023-05-22T15:12:41.530Z,1.95
2023-05-22T15:15:08.409Z,2.55
2023-05-22T15:17:34.973Z,2.78
2023-05-22T15:20:01.660Z,2.72
2023-05-22T15:22:28.201Z,2.15
2023-05-22T15:25:07.762Z,2.85
2023-05-22T15:27:35.367Z,2.90
2023-05-22T15:30:02.402Z,2.53
2023-05-22T15:32:30.872Z,2.45
2023-05-22T15:34:57.469Z,2.25
2023-05-22T15:37:24.038Z,2.72
2023-05-22T15:39:50.789Z,2.80
2023-05-22T15:42:17.539Z,2.75
2023-05-22T15:44:44.164Z,2.30
2023-05-22T15:47:10.685Z,2.47
2023-05-22T15:49:37.250Z,2.22
2023-05-22T15:52:03.833Z,2.25
2023-05-22T15:54:30.381Z,3.20
2023-05-22T15:56:57.480Z,2.53
2023-05-22T15:59:24.098Z,2.70
2023-05-22T16:01:50.729Z,2.40
2023-05-22T16:04:17.282Z,2.10
2023-05-22T16:06:43.806Z,2.75
2023-05-22T16:09:10.384Z,2.08
2023-05-22T16:11:37.956Z,2.40
2023-05-22T16:14:04.984Z,1.95
2023-05-22T16:16:31.646Z,2.67
2023-05-22T16:18:58.394Z,2.63
2023-05-22T16:21:25.030Z,2.25
2023-05-22T16:23:51.618Z,1.85
2023-05-22T16:26:18.260Z,2.05
2023-05-22T16:28:44.845Z,1.73
2023-05-22T16:31:13.004Z,2.28
2023-05-22T16:33:39.568Z,2.15
2023-05-22T16:36:06.257Z,2.42
2023-05-22T16:38:32.824Z,3.03
2023-05-22T16:40:59.329Z,2.25
2023-05-22T16:43:25.851Z,2.13
2023-05-22T16:45:52.442Z,1.77
2023-05-22T16:48:19.074Z,1.95
2023-05-22T16:50:46.900Z,2.58
2023-05-22T16:53:14.123Z,2.08
2023-05-22T16:55:40.836Z,2.22
2023-05-22T16:58:09.121Z,2.22
2023-05-22T17:00:36.338Z,2.33
2023-05-22T17:03:03.362Z,2.05
2023-05-22T17:05:30.180Z,2.47
2023-05-22T17:07:56.682Z,1.48
2023-05-22T17:10:23.195Z,2.35
2023-05-22T17:12:49.923Z,2.20
2023-05-22T17:15:16.478Z,2.58
2023-05-22T17:17:43.019Z,2.05
2023-05-22T17:20:10.404Z,1.58
2023-05-22T17:22:38.146Z,2.30
2023-05-22T17:25:06.164Z,2.47
2023-05-22T17:27:36.012Z,2.13
2023-05-22T17:30:03.128Z,2.33
2023-05-22T17:32:29.861Z,1.90
2023-05-22T17:34:56.683Z,2.60
2023-05-22T17:37:23.203Z,2.10
2023-05-22T17:39:49.785Z,1.73
2023-05-22T17:42:16.328Z,2.15
2023-05-22T17:44:42.921Z,2.22
2023-05-22T17:47:09.494Z,2.22
2023-05-22T17:49:36.960Z,1.90
2023-05-22T17:52:03.485Z,2.35
2023-05-22T17:54:35.954Z,1.88
2023-05-22T17:57:04.212Z,2.70
2023-05-22T17:59:31.257Z,2.15
2023-05-22T18:01:57.870Z,1.95
2023-05-22T18:04:24.408Z,2.20
2023-05-22T18:06:50.987Z,1.83
2023-05-22T18:09:17.504Z,2.33
2023-05-22T18:11:44.044Z,2.97
2023-05-22T18:14:10.719Z,2.42
2023-05-22T18:16:37.281Z,2.75
2023-05-22T18:19:03.977Z,2.65
2023-05-22T18:21:30.833Z,2.70
2023-05-22T18:23:57.376Z,2.33
2023-05-22T18:26:23.950Z,2.90
2023-05-22T18:28:50.524Z,2.95
2023-05-22T18:31:17.079Z,2.67
2023-05-22T18:33:45.222Z,2.67
2023-05-22T18:36:12.217Z,2.25
2023-05-22T18:38:38.853Z,2.60
2023-05-22T18:41:06.517Z,2.35
2023-05-22T18:43:33.208Z,3.60
2023-05-22T18:45:59.829Z,2.42
2023-05-22T18:48:27.469Z,3.17
2023-05-22T18:50:55.658Z,2.78
2023-05-22T18:53:22.184Z,2.53
2023-05-22T18:55:48.852Z,3.20
2023-05-22T18:58:15.489Z,3.63
2023-05-22T19:00:42.343Z,3.20
2023-05-22T19:03:11.387Z,2.88
2023-05-22T19:05:38.362Z,3.00
2023-05-22T19:08:05.252Z,2.50
2023-05-22T19:10:31.853Z,3.58
2023-05-22T19:12:58.443Z,4.45
2023-05-22T19:15:25.964Z,3.60
2023-05-22T19:17:52.734Z,3.20
2023-05-22T19:20:19.375Z,3.25
2023-05-22T19:22:45.953Z,3.10
2023-05-22T19:25:12.582Z,3.42
2023-05-22T19:27:39.428Z,3.67
2023-05-22T19:30:07.642Z,2.92
2023-05-22T19:32:34.303Z,4.10
2023-05-22T19:35:01.579Z,3.33
2023-05-22T19:37:28.134Z,4.07
2023-05-22T19:39:54.688Z,3.53
2023-05-22T19:42:21.204Z,3.92
2023-05-22T19:44:47.789Z,3.40
2023-05-22T19:47:14.337Z,3.50
2023-05-22T19:49:40.949Z,2.88
2023-05-22T19:52:07.551Z,3.67
2023-05-22T19:54:34.744Z,4.47
2023-05-22T19:57:01.318Z,4.05
2023-05-22T19:59:27.862Z,3.42
2023-05-22T20:01:54.494Z,4.25
2023-05-22T20:04:21.587Z,3.25
2023-05-22T20:06:48.561Z,3.47
2023-05-22T20:09:15.554Z,4.15
2023-05-22T20:11:43.210Z,3.63
2023-05-22T20:14:09.931Z,3.30
2023-05-22T20:16:36.630Z,3.20
2023-05-22T20:19:04.129Z,3.60
2023-05-22T20:21:31.168Z,3.28
2023-05-22T20:23:57.808Z,3.75
2023-05-22T20:26:24.407Z,3.28
2023-05-22T20:28:51.035Z,3.50
2023-05-22T20:31:17.710Z,3.60
2023-05-22T20:33:44.309Z,3.67
2023-05-22T20:36:10.913Z,3.15
2023-05-22T20:38:37.436Z,4.65
2023-05-22T20:41:08.167Z,3.42
2023-05-22T20:43:36.163Z,3.40
2023-05-22T20:46:03.542Z,3.80
2023-05-22T20:48:30.248Z,4.35
2023-05-22T20:50:56.862Z,3.92
2023-05-22T20:53:24.600Z,3.88
2023-05-22T20:55:53.313Z,3.13
2023-05-22T20:58:20.074Z,3.30
2023-05-22T21:00:49.471Z,3.25
2023-05-22T21:03:16.601Z,3.60
2023-05-22T21:05:43.185Z,3.63
2023-05-22T21:08:09.821Z,3.85
2023-05-22T21:10:36.371Z,3.10
2023-05-22T21:13:02.914Z,3.80
2023-05-22T21:15:29.472Z,4.22
2023-05-22T21:17:56.059Z,2.88
2023-05-22T21:20:22.707Z,3.45
2023-05-22T21:22:49.292Z,3.90
2023-05-22T21:25:15.913Z,3.28
2023-05-22T21:27:42.496Z,3.38
2023-05-22T21:30:12.189Z,4.22
2023-05-22T21:32:38.805Z,3.83
2023-05-22T21:35:05.665Z,3.80
2023-05-22T21:37:32.253Z,3.45
2023-05-22T21:39:58.860Z,3.50
2023-05-22T21:42:26.173Z,3.17
2023-05-22T21:44:52.884Z,4.47
2023-05-22T21:47:19.450Z,3.65
2023-05-22T21:49:46.010Z,3.58
2023-05-22T21:52:12.776Z,2.97
2023-05-22T21:54:39.771Z,3.45
2023-05-22T21:57:06.549Z,2.63
2023-05-22T21:59:33.069Z,4.00
2023-05-22T22:01:59.659Z,4.25
2023-05-22T22:04:26.214Z,3.70
2023-05-22T22:06:52.742Z,3.75
2023-05-22T22:09:19.288Z,2.83
2023-05-22T22:11:45.885Z,3.00
2023-05-22T22:14:12.451Z,2.63
2023-05-22T22:16:40.732Z,3.67
2023-05-22T22:19:07.398Z,2.05
2023-05-22T22:21:34.280Z,3.72
2023-05-22T22:24:00.890Z,3.40
2023-05-22T22:26:30.733Z,4.18
2023-05-22T22:28:57.710Z,3.50
2023-05-22T22:31:26.414Z,4.38
2023-05-22T22:33:53.005Z,3.90
2023-05-22T22:36:19.578Z,3.05
2023-05-22T22:38:46.124Z,3.85
2023-05-22T22:41:12.690Z,4.38
2023-05-22T22:43:39.242Z,3.80
2023-05-22T22:46:05.967Z,3.97
2023-05-22T22:48:32.663Z,3.47
2023-05-22T22:50:59.246Z,3.88
2023-05-22T22:53:25.787Z,3.55
2023-05-22T22:55:56.826Z,3.72
2023-05-22T22:58:23.664Z,3.25
2023-05-22T23:00:50.258Z,3.03
2023-05-22T23:03:16.849Z,3.58
2023-05-22T23:05:43.743Z,3.15
2023-05-22T23:08:10.655Z,4.57
2023-05-22T23:10:37.313Z,3.15
2023-05-22T23:13:03.913Z,2.85
2023-05-22T23:15:30.559Z,3.53
2023-05-22T23:17:57.146Z,3.00
2023-05-22T23:20:23.711Z,3.70
2023-05-22T23:22:50.348Z,3.58
2023-05-22T23:25:16.940Z,3.30
2023-05-22T23:27:43.696Z,4.13
2023-05-22T23:30:10.478Z,3.70
2023-05-22T23:32:37.054Z,2.75
2023-05-22T23:35:04.406Z,3.22
2023-05-22T23:37:31.131Z,3.58
2023-05-22T23:39:57.689Z,2.88
2023-05-22T23:42:24.305Z,3.03
2023-05-22T23:44:50.862Z,3.78
2023-05-22T23:47:18.766Z,4.38
2023-05-22T23:49:45.687Z,3.38
2023-05-22T23:52:12.414Z,3.50
2023-05-22T23:54:39.209Z,3.85
2023-05-22T23:57:05.791Z,3.45
2023-05-22T23:59:32.389Z,4.20
